createdAt,value
2023-11-07T00:00:12.635Z,87.60
2023-11-07T00:01:12.700Z,87.23
2023-11-07T00:02:12.707Z,87.09
2023-11-07T00:03:12.754Z,86.91
2023-11-07T00:04:12.660Z,87.09
2023-11-07T00:05:12.898Z,87.25
2023-11-07T00:06:12.711Z,87.27
2023-11-07T00:07:12.632Z,87.40
2023-11-07T00:08:12.529Z,87.55
2023-11-07T00:09:12.568Z,87.21
2023-11-07T00:10:12.533Z,87.20
2023-11-07T00:11:12.579Z,87.33
2023-11-07T00:12:12.689Z,87.30
2023-11-07T00:13:12.513Z,87.22
2023-11-07T00:14:12.589Z,87.19
2023-11-07T00:15:12.524Z,87.28
2023-11-07T00:16:12.393Z,87.36
2023-11-07T00:17:12.415Z,87.40
2023-11-07T00:18:12.459Z,87.42
2023-11-07T00:19:12.564Z,87.63
2023-11-07T00:20:12.335Z,87.56
2023-11-07T00:21:12.433Z,87.62
2023-11-07T00:22:12.318Z,87.74
2023-11-07T00:23:12.347Z,87.83
2023-11-07T00:24:12.300Z,87.79
2023-11-07T00:25:12.360Z,87.91
2023-11-07T00:26:12.260Z,87.94
2023-11-07T00:27:12.281Z,87.83
2023-11-07T00:28:12.236Z,87.54
2023-11-07T00:29:12.292Z,87.49
2023-11-07T00:30:12.241Z,87.46
2023-11-07T00:31:12.365Z,87.37
2023-11-07T00:32:12.183Z,87.39
2023-11-07T00:33:12.393Z,87.07
2023-11-07T00:34:12.213Z,87.12
2023-11-07T00:35:12.226Z,87.14
2023-11-07T00:36:12.153Z,87.16
2023-11-07T00:37:12.165Z,87.46
2023-11-07T00:38:12.114Z,87.71
2023-11-07T00:39:12.163Z,87.49
2023-11-07T00:40:12.084Z,87.76
2023-11-07T00:41:12.202Z,87.97
2023-11-07T00:42:12.069Z,87.76
2023-11-07T00:43:12.088Z,87.69
2023-11-07T00:44:12.017Z,87.66
2023-11-07T00:45:12.118Z,87.57
2023-11-07T00:46:11.989Z,87.45
2023-11-07T00:47:12.017Z,87.60
2023-11-07T00:48:12.129Z,87.63
2023-11-07T00:49:12.205Z,87.62
2023-11-07T00:50:12.090Z,87.56
2023-11-07T00:51:11.960Z,87.53
2023-11-07T00:52:11.941Z,87.60
2023-11-07T00:53:11.956Z,87.77
2023-11-07T00:54:11.918Z,87.61
2023-11-07T00:55:11.968Z,87.29
2023-11-07T00:56:11.867Z,87.17
2023-11-07T00:57:11.897Z,87.30
2023-11-07T00:58:11.828Z,87.25
2023-11-07T00:59:11.901Z,87.20
2023-11-07T01:00:11.845Z,87.46
2023-11-07T01:01:11.807Z,87.63
2023-11-07T01:02:11.781Z,87.46
2023-11-07T01:03:32.921Z,87.45
2023-11-07T01:04:11.898Z,87.52
2023-11-07T01:05:11.917Z,87.40
2023-11-07T01:06:11.899Z,87.38
2023-11-07T01:07:11.855Z,87.37
2023-11-07T01:08:11.699Z,87.31
2023-11-07T01:09:11.760Z,87.32
2023-11-07T01:10:11.679Z,87.25
2023-11-07T01:11:11.780Z,87.27
2023-11-07T01:12:11.667Z,87.43
2023-11-07T01:13:11.733Z,87.49
2023-11-07T01:14:11.627Z,87.42
2023-11-07T01:15:11.703Z,87.28
2023-11-07T01:16:11.625Z,87.27
2023-11-07T01:17:11.626Z,87.62
2023-11-07T01:18:11.636Z,87.74
2023-11-07T01:19:11.788Z,87.71
2023-11-07T01:20:11.554Z,87.51
2023-11-07T01:21:11.567Z,87.71
2023-11-07T01:22:11.524Z,87.80
2023-11-07T01:23:11.570Z,87.85
2023-11-07T01:24:11.507Z,87.96
2023-11-07T01:25:11.588Z,87.99
2023-11-07T01:26:11.456Z,88.05
2023-11-07T01:27:11.481Z,88.09
2023-11-07T01:28:11.434Z,88.18
2023-11-07T01:29:11.498Z,88.16
2023-11-07T01:30:11.429Z,87.83
2023-11-07T01:31:11.420Z,87.60
2023-11-07T01:32:11.387Z,87.65
2023-11-07T01:33:11.578Z,87.64
2023-11-07T01:34:11.470Z,87.71
2023-11-07T01:35:11.446Z,87.76
2023-11-07T01:36:11.358Z,87.81
2023-11-07T01:37:11.362Z,87.94
2023-11-07T01:38:11.303Z,88.11
2023-11-07T01:39:11.425Z,88.23
2023-11-07T01:40:11.275Z,88.31
2023-11-07T01:41:11.443Z,88.50
2023-11-07T01:42:11.274Z,88.58
2023-11-07T01:43:11.312Z,88.64
2023-11-07T01:44:11.228Z,88.60
2023-11-07T01:45:11.372Z,88.62
2023-11-07T01:46:11.217Z,88.53
2023-11-07T01:47:11.224Z,88.34
2023-11-07T01:48:11.262Z,88.22
2023-11-07T01:49:12.301Z,88.22
2023-11-07T01:50:11.153Z,88.29
2023-11-07T01:51:11.162Z,88.26
2023-11-07T01:52:11.115Z,88.13
2023-11-07T01:53:11.167Z,88.11
2023-11-07T01:54:11.117Z,88.22
2023-11-07T01:55:11.181Z,88.39
2023-11-07T01:56:11.068Z,88.59
2023-11-07T01:57:11.099Z,88.54
2023-11-07T01:58:11.058Z,88.58
2023-11-07T01:59:11.108Z,88.62
2023-11-07T02:00:11.035Z,88.67
2023-11-07T02:01:11.020Z,88.72
2023-11-07T02:02:10.995Z,88.75
2023-11-07T02:03:11.139Z,88.74
2023-11-07T02:04:11.156Z,88.77
2023-11-07T02:05:11.176Z,88.82
2023-11-07T02:06:11.002Z,88.78
2023-11-07T02:07:10.978Z,88.65
2023-11-07T02:08:10.910Z,88.62
2023-11-07T02:09:11.012Z,88.70
2023-11-07T02:10:10.882Z,88.84
2023-11-07T02:11:10.890Z,88.76
2023-11-07T02:12:10.883Z,88.66
2023-11-07T02:13:10.903Z,88.52
2023-11-07T02:14:10.844Z,88.65
2023-11-07T02:15:10.939Z,88.63
2023-11-07T02:16:10.800Z,88.67
2023-11-07T02:17:10.834Z,88.81
2023-11-07T02:18:10.891Z,88.90
2023-11-07T02:19:10.864Z,88.94
2023-11-07T02:20:10.752Z,88.95
2023-11-07T02:21:10.906Z,89.01
2023-11-07T02:22:10.744Z,88.98
2023-11-07T02:23:10.787Z,89.00
2023-11-07T02:24:10.786Z,89.01
2023-11-07T02:25:10.785Z,88.97
2023-11-07T02:26:10.667Z,88.77
2023-11-07T02:27:10.701Z,88.67
2023-11-07T02:28:10.641Z,88.77
2023-11-07T02:29:31.796Z,88.78
2023-11-07T02:30:10.668Z,88.84
2023-11-07T02:31:10.630Z,88.75
2023-11-07T02:32:10.589Z,88.82
2023-11-07T02:33:10.724Z,88.92
2023-11-07T02:34:10.731Z,88.77
2023-11-07T02:35:10.598Z,88.66
2023-11-07T02:36:10.637Z,88.52
2023-11-07T02:37:10.562Z,88.55
2023-11-07T02:38:10.512Z,88.64
2023-11-07T02:39:10.616Z,88.75
2023-11-07T02:40:10.511Z,88.84
2023-11-07T02:41:10.542Z,88.83
2023-11-07T02:42:10.483Z,88.78
2023-11-07T02:43:10.517Z,88.83
2023-11-07T02:44:10.455Z,88.92
2023-11-07T02:45:10.563Z,88.97
2023-11-07T02:46:10.407Z,88.97
2023-11-07T02:47:10.489Z,89.00
2023-11-07T02:48:10.505Z,88.98
2023-11-07T02:49:10.502Z,88.94
2023-11-07T02:50:10.343Z,88.97
2023-11-07T02:51:10.407Z,88.91
2023-11-07T02:52:10.333Z,88.92
2023-11-07T02:53:10.433Z,88.87
2023-11-07T02:54:10.342Z,88.75
2023-11-07T02:55:10.390Z,88.90
2023-11-07T02:56:10.261Z,89.03
2023-11-07T02:57:10.335Z,89.08
2023-11-07T02:58:10.238Z,88.96
2023-11-07T02:59:10.278Z,88.99
2023-11-07T03:00:10.221Z,89.12
2023-11-07T03:01:10.253Z,89.14
2023-11-07T03:02:10.189Z,89.21
2023-11-07T03:03:31.330Z,89.13
2023-11-07T03:04:10.218Z,89.04
2023-11-07T03:05:10.206Z,89.12
2023-11-07T03:06:10.216Z,89.20
2023-11-07T03:07:10.186Z,89.18
2023-11-07T03:08:10.106Z,89.10
2023-11-07T03:09:10.220Z,88.94
2023-11-07T03:10:10.142Z,88.89
2023-11-07T03:11:10.214Z,88.86
2023-11-07T03:12:10.090Z,88.99
2023-11-07T03:13:10.127Z,89.17
2023-11-07T03:14:10.034Z,89.17
2023-11-07T03:15:10.156Z,89.07
2023-11-07T03:16:10.045Z,89.11
2023-11-07T03:17:10.093Z,89.06
2023-11-07T03:18:10.112Z,89.17
2023-11-07T03:19:10.181Z,89.02
2023-11-07T03:20:09.947Z,88.94
2023-11-07T03:21:10.008Z,89.00
2023-11-07T03:22:09.999Z,89.00
2023-11-07T03:23:10.030Z,88.96
2023-11-07T03:24:10.010Z,89.00
2023-11-07T03:25:09.984Z,88.90
2023-11-07T03:26:09.875Z,88.80
2023-11-07T03:27:09.953Z,88.84
2023-11-07T03:28:09.840Z,88.85
2023-11-07T03:29:09.864Z,88.82
2023-11-07T03:30:09.849Z,88.76
2023-11-07T03:31:09.914Z,88.71
2023-11-07T03:32:09.792Z,88.67
2023-11-07T03:33:10.947Z,88.63
2023-11-07T03:34:09.801Z,88.65
2023-11-07T03:35:09.805Z,88.63
2023-11-07T03:36:09.793Z,88.53
2023-11-07T03:37:09.778Z,88.46
2023-11-07T03:38:09.707Z,88.46
2023-11-07T03:39:09.824Z,88.49
2023-11-07T03:40:09.697Z,88.50
2023-11-07T03:41:09.763Z,88.44
2023-11-07T03:42:09.710Z,88.44
2023-11-07T03:43:11.828Z,88.41
2023-11-07T03:44:09.636Z,88.47
2023-11-07T03:45:09.802Z,88.62
2023-11-07T03:46:09.622Z,88.64
2023-11-07T03:47:09.695Z,88.64
2023-11-07T03:48:09.651Z,88.59
2023-11-07T03:49:09.794Z,88.47
2023-11-07T03:50:09.546Z,88.38
2023-11-07T03:51:09.581Z,88.33
2023-11-07T03:52:09.517Z,88.19
2023-11-07T03:53:09.651Z,88.10
2023-11-07T03:54:09.583Z,88.07
2023-11-07T03:55:09.594Z,87.93
2023-11-07T03:56:09.465Z,87.80
2023-11-07T03:57:09.535Z,87.82
2023-11-07T03:58:09.444Z,87.97
2023-11-07T03:59:09.489Z,87.87
2023-11-07T04:00:09.462Z,87.76
2023-11-07T04:01:09.433Z,87.71
2023-11-07T04:02:09.392Z,87.80
2023-11-07T04:03:09.536Z,87.93
2023-11-07T04:04:09.442Z,87.95
2023-11-07T04:05:09.452Z,88.04
2023-11-07T04:06:09.630Z,88.14
2023-11-07T04:07:09.399Z,88.32
2023-11-07T04:08:09.316Z,88.30
2023-11-07T04:09:09.422Z,88.20
2023-11-07T04:10:09.271Z,88.22
2023-11-07T04:11:09.370Z,88.20
2023-11-07T04:12:09.281Z,88.11
2023-11-07T04:13:09.318Z,88.11
2023-11-07T04:14:09.255Z,88.21
2023-11-07T04:15:09.255Z,88.29
2023-11-07T04:16:09.210Z,88.29
2023-11-07T04:17:09.313Z,88.38
2023-11-07T04:18:09.263Z,88.49
2023-11-07T04:19:09.466Z,88.60
2023-11-07T04:20:09.152Z,88.82
2023-11-07T04:21:09.257Z,88.76
2023-11-07T04:22:09.129Z,88.55
2023-11-07T04:23:09.233Z,88.49
2023-11-07T04:24:09.191Z,88.45
2023-11-07T04:25:09.121Z,88.44
2023-11-07T04:26:09.091Z,88.52
2023-11-07T04:27:09.200Z,88.65
2023-11-07T04:28:09.046Z,88.88
2023-11-07T04:29:09.084Z,88.94
2023-11-07T04:30:09.203Z,88.91
2023-11-07T04:31:09.238Z,89.00
2023-11-07T04:32:09.035Z,89.02
2023-11-07T04:33:09.227Z,89.19
2023-11-07T04:34:08.964Z,89.32
2023-11-07T04:35:09.027Z,89.42
2023-11-07T04:36:09.036Z,89.47
2023-11-07T04:37:09.078Z,89.39
2023-11-07T04:38:08.917Z,89.45
2023-11-07T04:39:09.176Z,89.52
2023-11-07T04:40:08.897Z,89.59
2023-11-07T04:41:08.962Z,89.51
2023-11-07T04:42:08.897Z,89.47
2023-11-07T04:43:08.991Z,89.58
2023-11-07T04:44:08.901Z,89.58
2023-11-07T04:45:08.888Z,89.41
2023-11-07T04:46:08.801Z,89.30
2023-11-07T04:47:08.901Z,89.23
2023-11-07T04:48:08.926Z,89.18
2023-11-07T04:49:09.372Z,89.26
2023-11-07T04:50:08.754Z,89.36
2023-11-07T04:51:08.901Z,89.47
2023-11-07T04:52:08.723Z,89.48
2023-11-07T04:53:08.886Z,89.44
2023-11-07T04:54:08.719Z,89.33
2023-11-07T04:55:08.753Z,89.32
2023-11-07T04:56:08.674Z,89.08
2023-11-07T04:57:29.711Z,88.94
2023-11-07T04:58:08.645Z,88.85
2023-11-07T04:59:08.655Z,88.74
2023-11-07T05:00:08.683Z,88.60
2023-11-07T05:01:08.608Z,88.43
2023-11-07T05:02:08.652Z,88.29
2023-11-07T05:03:08.753Z,88.20
2023-11-07T05:04:08.793Z,88.18
2023-11-07T05:05:08.576Z,88.10
2023-11-07T05:06:08.708Z,88.06
2023-11-07T05:07:08.525Z,88.08
2023-11-07T05:08:08.609Z,88.16
2023-11-07T05:09:08.528Z,88.27
2023-11-07T05:10:08.514Z,88.50
2023-11-07T05:11:08.669Z,88.46
2023-11-07T05:12:08.576Z,88.35
2023-11-07T05:13:08.491Z,88.36
2023-11-07T05:14:08.545Z,88.42
2023-11-07T05:15:08.670Z,88.32
2023-11-07T05:16:08.461Z,88.18
2023-11-07T05:17:08.417Z,88.23
2023-11-07T05:18:08.904Z,88.40
2023-11-07T05:19:08.468Z,88.47
2023-11-07T05:20:08.400Z,88.35
2023-11-07T05:21:08.383Z,88.40
2023-11-07T05:22:08.395Z,88.38
2023-11-07T05:23:08.363Z,88.45
2023-11-07T05:24:08.459Z,88.34
2023-11-07T05:25:08.440Z,88.14
2023-11-07T05:26:09.360Z,88.08
2023-11-07T05:27:08.287Z,88.35
2023-11-07T05:28:08.412Z,88.50
2023-11-07T05:29:08.264Z,88.57
2023-11-07T05:30:08.322Z,88.55
2023-11-07T05:31:08.285Z,88.57
2023-11-07T05:32:08.296Z,88.54
2023-11-07T05:33:08.410Z,88.47
2023-11-07T05:34:08.455Z,88.43
2023-11-07T05:35:08.355Z,88.33
2023-11-07T05:36:09.266Z,88.19
2023-11-07T05:37:08.151Z,88.08
2023-11-07T05:38:08.247Z,88.08
2023-11-07T05:39:08.275Z,87.97
2023-11-07T05:40:08.133Z,88.00
2023-11-07T05:41:08.116Z,88.04
2023-11-07T05:42:08.295Z,88.03
2023-11-07T05:43:08.075Z,88.18
2023-11-07T05:44:08.169Z,88.18
2023-11-07T05:45:08.072Z,88.08
2023-11-07T05:46:08.081Z,88.03
2023-11-07T05:47:08.168Z,87.96
2023-11-07T05:48:08.163Z,87.99
2023-11-07T05:49:08.089Z,88.12
2023-11-07T05:50:07.992Z,88.16
2023-11-07T05:51:08.106Z,88.13
2023-11-07T05:52:08.014Z,88.13
2023-11-07T05:53:07.950Z,88.15
2023-11-07T05:54:08.045Z,88.28
2023-11-07T05:55:07.899Z,88.38
2023-11-07T05:56:07.937Z,88.27
2023-11-07T05:57:09.126Z,88.32
2023-11-07T05:58:12.145Z,88.39
2023-11-07T05:59:11.700Z,88.61
2023-11-07T06:00:11.157Z,88.64
2023-11-07T06:01:12.225Z,88.74
2023-11-07T06:02:10.367Z,88.74
2023-11-07T06:03:09.647Z,88.63
2023-11-07T06:04:09.374Z,88.61
2023-11-07T06:05:17.471Z,88.68
2023-11-07T06:06:21.082Z,88.86
2023-11-07T06:07:12.868Z,88.94
2023-11-07T06:08:17.783Z,89.00
2023-11-07T06:09:10.645Z,89.14
2023-11-07T06:10:09.135Z,89.25
2023-11-07T06:11:16.720Z,89.27
2023-11-07T06:12:09.348Z,89.11
2023-11-07T06:13:07.734Z,89.17
2023-11-07T06:14:07.638Z,89.14
2023-11-07T06:15:07.678Z,89.27
2023-11-07T06:16:07.605Z,89.31
2023-11-07T06:17:08.649Z,89.31
2023-11-07T06:18:07.738Z,89.27
2023-11-07T06:19:07.800Z,89.21
2023-11-07T06:20:07.603Z,89.14
2023-11-07T06:21:07.618Z,89.03
2023-11-07T06:22:07.797Z,88.93
2023-11-07T06:23:07.563Z,88.85
2023-11-07T06:24:07.548Z,88.79
2023-11-07T06:25:07.516Z,88.68
2023-11-07T06:26:07.480Z,88.49
2023-11-07T06:27:07.528Z,88.41
2023-11-07T06:28:07.584Z,88.35
2023-11-07T06:29:07.500Z,88.27
2023-11-07T06:30:07.435Z,88.32
2023-11-07T06:31:07.458Z,88.30
2023-11-07T06:32:07.391Z,88.33
2023-11-07T06:33:07.504Z,88.22
2023-11-07T06:34:07.429Z,88.24
2023-11-07T06:35:08.520Z,88.39
2023-11-07T06:36:07.345Z,88.41
2023-11-07T06:37:07.423Z,88.56
2023-11-07T06:38:07.302Z,88.61
2023-11-07T06:39:07.561Z,88.64
2023-11-07T06:40:07.296Z,88.77
2023-11-07T06:41:07.388Z,88.88
2023-11-07T06:42:07.300Z,88.95
2023-11-07T06:43:07.341Z,88.90
2023-11-07T06:44:07.227Z,88.64
2023-11-07T06:45:07.287Z,88.51
2023-11-07T06:46:07.204Z,88.53
2023-11-07T06:47:07.329Z,88.52
2023-11-07T06:48:07.313Z,88.52
2023-11-07T06:49:07.409Z,88.56
2023-11-07T06:50:07.163Z,88.52
2023-11-07T06:51:07.216Z,88.46
2023-11-07T06:52:07.141Z,88.51
2023-11-07T06:53:07.148Z,88.70
2023-11-07T06:54:07.161Z,88.82
2023-11-07T06:55:07.139Z,88.95
2023-11-07T06:56:07.067Z,89.06
2023-11-07T06:57:07.186Z,89.07
2023-11-07T06:58:07.046Z,89.06
2023-11-07T06:59:07.109Z,89.02
2023-11-07T07:00:09.073Z,89.00
2023-11-07T07:01:07.102Z,88.89
2023-11-07T07:02:07.039Z,88.88
2023-11-07T07:03:07.245Z,89.02
2023-11-07T07:04:07.149Z,89.11
2023-11-07T07:05:07.172Z,89.14
2023-11-07T07:06:07.055Z,89.19
2023-11-07T07:07:07.141Z,89.31
2023-11-07T07:08:06.944Z,89.33
2023-11-07T07:09:07.090Z,89.40
2023-11-07T07:10:07.059Z,89.44
2023-11-07T07:11:07.082Z,89.46
2023-11-07T07:12:07.040Z,89.47
2023-11-07T07:13:07.057Z,89.44
2023-11-07T07:14:06.970Z,89.30
2023-11-07T07:15:07.024Z,89.19
2023-11-07T07:16:06.868Z,89.22
2023-11-07T07:17:07.052Z,89.31
2023-11-07T07:18:06.997Z,89.20
2023-11-07T07:19:28.041Z,89.17
2023-11-07T07:20:06.803Z,89.19
2023-11-07T07:21:06.891Z,89.18
2023-11-07T07:22:06.770Z,89.23
2023-11-07T07:23:06.886Z,89.32
2023-11-07T07:24:06.728Z,89.30
2023-11-07T07:25:08.964Z,89.17
2023-11-07T07:26:06.718Z,89.19
2023-11-07T07:27:06.934Z,89.19
2023-11-07T07:28:06.687Z,89.16
2023-11-07T07:29:06.762Z,89.19
2023-11-07T07:30:06.673Z,89.16
2023-11-07T07:31:08.870Z,89.16
2023-11-07T07:32:06.647Z,89.12
2023-11-07T07:33:06.995Z,89.09
2023-11-07T07:34:06.669Z,89.21
2023-11-07T07:35:06.785Z,89.31
2023-11-07T07:36:06.669Z,89.32
2023-11-07T07:37:06.660Z,89.46
2023-11-07T07:38:06.536Z,89.57
2023-11-07T07:39:06.619Z,89.57
2023-11-07T07:40:06.512Z,89.60
2023-11-07T07:41:06.685Z,89.57
2023-11-07T07:42:06.566Z,89.62
2023-11-07T07:43:06.576Z,89.61
2023-11-07T07:44:06.478Z,89.70
2023-11-07T07:45:06.612Z,89.78
2023-11-07T07:46:06.454Z,89.71
2023-11-07T07:47:06.476Z,89.62
2023-11-07T07:48:06.547Z,89.65
2023-11-07T07:49:27.499Z,89.66
2023-11-07T07:50:06.455Z,89.74
2023-11-07T07:51:06.400Z,90.12
2023-11-07T07:52:06.496Z,90.22
2023-11-07T07:53:06.461Z,90.29
2023-11-07T07:54:12.501Z,90.46
2023-11-07T07:55:13.432Z,90.58
2023-11-07T07:56:07.344Z,90.76
2023-11-07T07:57:06.418Z,90.84
2023-11-07T07:58:06.270Z,90.97
2023-11-07T07:59:09.687Z,91.19
2023-11-07T08:00:06.290Z,91.35
2023-11-07T08:01:06.371Z,91.47
2023-11-07T08:02:06.261Z,91.54
2023-11-07T08:03:06.837Z,91.69
2023-11-07T08:04:06.260Z,91.91
2023-11-07T08:05:06.329Z,92.03
2023-11-07T08:06:06.195Z,92.13
2023-11-07T08:07:06.393Z,92.03
2023-11-07T08:08:06.156Z,92.00
2023-11-07T08:09:06.275Z,91.93
2023-11-07T08:10:06.152Z,91.94
2023-11-07T08:11:08.361Z,91.97
2023-11-07T08:12:06.231Z,91.98
2023-11-07T08:13:06.314Z,91.93
2023-11-07T08:14:06.067Z,91.91
2023-11-07T08:15:06.136Z,91.87
2023-11-07T08:16:06.315Z,91.76
2023-11-07T08:17:06.116Z,91.68
2023-11-07T08:18:06.197Z,91.51
2023-11-07T08:19:06.073Z,91.34
2023-11-07T08:20:05.983Z,91.39
2023-11-07T08:21:06.064Z,91.35
2023-11-07T08:22:05.966Z,91.37
2023-11-07T08:23:06.569Z,91.26
2023-11-07T08:24:05.977Z,90.98
2023-11-07T08:25:06.029Z,90.51
2023-11-07T08:26:05.903Z,89.32
2023-11-07T08:27:06.083Z,88.75
2023-11-07T08:28:05.893Z,87.95
2023-11-07T08:29:05.966Z,86.92
2023-11-07T08:30:05.892Z,86.35
2023-11-07T08:31:06.008Z,85.98
2023-11-07T08:32:05.817Z,87.00
2023-11-07T08:33:06.032Z,86.97
2023-11-07T08:34:05.972Z,87.03
2023-11-07T08:35:05.874Z,87.26
2023-11-07T08:36:05.817Z,87.07
2023-11-07T08:37:09.194Z,86.66
2023-11-07T08:38:06.755Z,86.56
2023-11-07T08:39:05.842Z,87.40
2023-11-07T08:40:05.743Z,87.28
2023-11-07T08:41:26.867Z,87.24
2023-11-07T08:42:05.846Z,86.94
2023-11-07T08:43:05.832Z,85.49
2023-11-07T08:44:05.663Z,84.74
2023-11-07T08:45:06.845Z,84.44
2023-11-07T08:46:05.668Z,83.75
2023-11-07T08:47:07.823Z,83.61
2023-11-07T08:48:05.746Z,82.46
2023-11-07T08:49:05.751Z,81.75
2023-11-07T08:50:05.602Z,81.91
2023-11-07T08:51:06.695Z,84.47
2023-11-07T08:52:05.601Z,85.81
2023-11-07T08:53:05.688Z,86.35
2023-11-07T08:54:05.662Z,86.60
2023-11-07T08:55:05.613Z,86.48
2023-11-07T08:56:05.514Z,85.30
2023-11-07T08:57:05.736Z,85.19
2023-11-07T08:58:05.504Z,85.39
2023-11-07T08:59:05.621Z,84.78
2023-11-07T09:00:05.492Z,84.65
2023-11-07T09:01:05.563Z,83.75
2023-11-07T09:02:05.478Z,82.94
2023-11-07T09:03:07.647Z,82.35
2023-11-07T09:04:05.480Z,82.36
2023-11-07T09:05:05.581Z,82.06
2023-11-07T09:06:05.437Z,82.70
2023-11-07T09:07:05.559Z,82.27
2023-11-07T09:08:05.353Z,81.07
2023-11-07T09:09:07.590Z,81.85
2023-11-07T09:10:05.334Z,82.02
2023-11-07T09:11:05.406Z,81.24
2023-11-07T09:12:05.318Z,80.80
2023-11-07T09:13:05.367Z,80.83
2023-11-07T09:14:05.246Z,80.30
2023-11-07T09:15:06.452Z,79.54
2023-11-07T09:16:05.245Z,80.81
2023-11-07T09:17:05.430Z,82.98
2023-11-07T09:18:05.267Z,83.50
2023-11-07T09:19:05.363Z,82.89
2023-11-07T09:20:05.172Z,81.77
2023-11-07T09:21:07.443Z,80.84
2023-11-07T09:22:05.201Z,79.69
2023-11-07T09:23:05.223Z,79.90
2023-11-07T09:24:05.204Z,80.55
2023-11-07T09:25:05.244Z,82.67
2023-11-07T09:26:05.122Z,83.55
2023-11-07T09:27:05.336Z,82.74
2023-11-07T09:28:05.111Z,83.13
2023-11-07T09:29:05.139Z,83.48
2023-11-07T09:30:05.109Z,83.90
2023-11-07T09:31:05.152Z,84.17
2023-11-07T09:32:05.033Z,84.12
2023-11-07T09:33:29.361Z,83.71
2023-11-07T09:34:05.139Z,83.36
2023-11-07T09:35:04.996Z,83.73
2023-11-07T09:36:05.131Z,84.80
2023-11-07T09:37:04.961Z,85.00
2023-11-07T09:38:06.194Z,85.21
2023-11-07T09:39:04.998Z,84.56
2023-11-07T09:40:05.119Z,84.01
2023-11-07T09:41:04.897Z,81.75
2023-11-07T09:42:05.049Z,80.73
2023-11-07T09:43:04.885Z,81.25
2023-11-07T09:44:05.087Z,81.53
2023-11-07T09:45:04.911Z,81.00
2023-11-07T09:46:04.918Z,81.84
2023-11-07T09:47:04.833Z,83.05
2023-11-07T09:48:04.950Z,83.97
2023-11-07T09:49:04.902Z,83.58
2023-11-07T09:50:04.857Z,82.84
2023-11-07T09:51:04.830Z,82.40
2023-11-07T09:52:04.874Z,81.88
2023-11-07T09:53:04.733Z,81.10
2023-11-07T09:54:05.761Z,80.65
2023-11-07T09:55:04.710Z,79.72
2023-11-07T09:56:04.858Z,78.58
2023-11-07T09:57:04.763Z,77.01
2023-11-07T09:58:12.492Z,76.59
2023-11-07T09:59:05.676Z,77.33
2023-11-07T10:00:04.802Z,78.31
2023-11-07T10:01:04.628Z,78.79
2023-11-07T10:02:27.793Z,79.21
2023-11-07T10:03:04.797Z,77.93
2023-11-07T10:04:04.900Z,77.79
2023-11-07T10:05:04.811Z,77.33
2023-11-07T10:06:04.774Z,76.98
2023-11-07T10:07:04.597Z,75.88
2023-11-07T10:08:05.743Z,76.14
2023-11-07T10:09:04.558Z,73.86
2023-11-07T10:10:04.636Z,73.79
2023-11-07T10:11:04.493Z,75.80
2023-11-07T10:12:04.661Z,75.39
2023-11-07T10:13:04.471Z,74.77
2023-11-07T10:14:06.588Z,73.63
2023-11-07T10:15:04.474Z,73.33
2023-11-07T10:16:15.875Z,73.49
2023-11-07T10:17:05.717Z,73.67
2023-11-07T10:18:04.491Z,74.01
2023-11-07T10:19:07.030Z,74.86
2023-11-07T10:20:04.439Z,75.27
2023-11-07T10:21:04.551Z,75.10
2023-11-07T10:22:04.360Z,74.83
2023-11-07T10:23:04.385Z,75.37
2023-11-07T10:24:04.458Z,76.39
2023-11-07T10:25:04.456Z,75.11
2023-11-07T10:26:04.336Z,74.40
2023-11-07T10:27:04.402Z,74.62
2023-11-07T10:28:04.284Z,74.32
2023-11-07T10:29:04.385Z,73.44
2023-11-07T10:30:04.294Z,73.31
2023-11-07T10:31:05.371Z,74.59
2023-11-07T10:32:04.627Z,74.52
2023-11-07T10:33:04.384Z,74.60
2023-11-07T10:34:04.240Z,73.25
2023-11-07T10:35:04.301Z,74.46
2023-11-07T10:36:04.609Z,74.49
2023-11-07T10:37:04.231Z,72.74
2023-11-07T10:38:04.177Z,72.79
2023-11-07T10:39:04.288Z,73.37
2023-11-07T10:40:04.116Z,75.79
2023-11-07T10:41:04.317Z,75.18
2023-11-07T10:42:04.087Z,74.93
2023-11-07T10:43:04.109Z,74.18
2023-11-07T10:44:04.075Z,74.99
2023-11-07T10:45:04.217Z,75.39
2023-11-07T10:46:04.024Z,75.45
2023-11-07T10:47:05.138Z,75.61
2023-11-07T10:48:04.180Z,75.19
2023-11-07T10:49:04.223Z,75.09
2023-11-07T10:50:04.002Z,75.49
2023-11-07T10:51:04.129Z,74.42
2023-11-07T10:52:04.036Z,75.18
2023-11-07T10:53:03.993Z,75.80
2023-11-07T10:54:04.008Z,76.74
2023-11-07T10:55:04.066Z,77.29
2023-11-07T10:56:03.921Z,76.68
2023-11-07T10:57:04.058Z,76.00
2023-11-07T10:58:03.871Z,75.21
2023-11-07T10:59:05.065Z,74.39
2023-11-07T11:00:04.001Z,74.20
2023-11-07T11:01:03.964Z,74.59
2023-11-07T11:02:03.831Z,74.87
2023-11-07T11:03:04.038Z,74.45
2023-11-07T11:04:03.903Z,75.11
2023-11-07T11:05:05.942Z,75.87
2023-11-07T11:06:04.064Z,75.29
2023-11-07T11:07:04.008Z,75.20
2023-11-07T11:08:03.744Z,75.14
2023-11-07T11:09:03.915Z,74.91
2023-11-07T11:10:03.717Z,74.63
2023-11-07T11:11:04.768Z,74.17
2023-11-07T11:12:03.700Z,74.11
2023-11-07T11:13:03.737Z,75.38
2023-11-07T11:14:03.688Z,74.54
2023-11-07T11:15:03.820Z,74.19
2023-11-07T11:16:03.606Z,75.22
2023-11-07T11:17:03.750Z,74.68
2023-11-07T11:18:03.682Z,73.23
2023-11-07T11:19:04.047Z,73.76
2023-11-07T11:20:03.703Z,74.15
2023-11-07T11:21:24.729Z,73.56
2023-11-07T11:22:03.533Z,71.13
2023-11-07T11:23:03.582Z,71.33
2023-11-07T11:24:03.552Z,74.06
2023-11-07T11:25:04.586Z,71.41
2023-11-07T11:26:03.496Z,70.56
2023-11-07T11:27:03.620Z,71.75
2023-11-07T11:28:03.453Z,75.29
2023-11-07T11:29:24.654Z,73.01
2023-11-07T11:30:03.479Z,72.18
2023-11-07T11:31:03.490Z,71.60
2023-11-07T11:32:03.419Z,71.20
2023-11-07T11:33:03.667Z,72.53
2023-11-07T11:34:03.457Z,73.70
2023-11-07T11:35:03.545Z,73.15
2023-11-07T11:36:03.396Z,73.81
2023-11-07T11:37:03.493Z,72.99
2023-11-07T11:38:03.331Z,73.57
2023-11-07T11:39:03.553Z,73.12
2023-11-07T11:40:03.340Z,72.29
2023-11-07T11:41:03.373Z,73.85
2023-11-07T11:42:03.338Z,74.83
2023-11-07T11:43:03.311Z,74.70
2023-11-07T11:44:03.267Z,73.39
2023-11-07T11:45:03.539Z,73.77
2023-11-07T11:46:03.234Z,73.21
2023-11-07T11:47:03.267Z,73.71
2023-11-07T11:48:03.440Z,74.69
2023-11-07T11:49:03.419Z,74.31
2023-11-07T11:50:03.206Z,74.08
2023-11-07T11:51:04.295Z,73.49
2023-11-07T11:52:03.116Z,73.69
2023-11-07T11:53:03.201Z,74.18
2023-11-07T11:54:03.235Z,73.82
2023-11-07T11:55:03.324Z,73.11
2023-11-07T11:56:03.094Z,74.97
2023-11-07T11:57:24.133Z,73.69
2023-11-07T11:58:03.037Z,74.97
2023-11-07T11:59:03.221Z,74.90
2023-11-07T12:00:03.039Z,74.32
2023-11-07T12:01:03.098Z,75.31
2023-11-07T12:02:03.103Z,76.42
2023-11-07T12:03:03.265Z,75.92
2023-11-07T12:04:02.986Z,74.11
2023-11-07T12:05:02.983Z,73.19
2023-11-07T12:06:03.089Z,72.63
2023-11-07T12:07:03.171Z,73.91
2023-11-07T12:08:02.943Z,73.80
2023-11-07T12:09:03.077Z,73.86
2023-11-07T12:10:02.878Z,72.87
2023-11-07T12:11:02.992Z,73.22
2023-11-07T12:12:02.899Z,73.53
2023-11-07T12:13:02.936Z,74.09
2023-11-07T12:14:02.861Z,74.25
2023-11-07T12:15:02.874Z,73.96
2023-11-07T12:16:02.808Z,74.24
2023-11-07T12:17:02.880Z,73.92
2023-11-07T12:18:02.915Z,73.44
2023-11-07T12:19:02.977Z,73.93
2023-11-07T12:20:02.775Z,74.00
2023-11-07T12:21:05.005Z,74.15
2023-11-07T12:22:02.749Z,74.28
2023-11-07T12:23:02.786Z,74.88
2023-11-07T12:24:03.223Z,76.61
2023-11-07T12:25:02.720Z,74.64
2023-11-07T12:26:02.696Z,73.94
2023-11-07T12:27:23.788Z,74.07
2023-11-07T12:28:02.675Z,74.82
2023-11-07T12:29:02.796Z,74.50
2023-11-07T12:30:02.634Z,73.20
2023-11-07T12:31:06.224Z,73.76
2023-11-07T12:32:03.673Z,74.31
2023-11-07T12:33:03.033Z,74.83
2023-11-07T12:34:02.629Z,74.33
2023-11-07T12:35:02.629Z,74.26
2023-11-07T12:36:02.561Z,74.36
2023-11-07T12:37:02.654Z,73.75
2023-11-07T12:38:02.527Z,72.32
2023-11-07T12:39:03.619Z,73.54
2023-11-07T12:40:02.482Z,73.57
2023-11-07T12:41:02.630Z,72.97
2023-11-07T12:42:02.505Z,72.12
2023-11-07T12:43:02.521Z,72.12
2023-11-07T12:44:02.464Z,74.35
2023-11-07T12:45:02.524Z,73.11
2023-11-07T12:46:02.397Z,73.73
2023-11-07T12:47:02.508Z,74.83
2023-11-07T12:48:02.520Z,75.50
2023-11-07T12:49:02.591Z,72.58
2023-11-07T12:50:02.349Z,72.33
2023-11-07T12:51:03.540Z,71.83
2023-11-07T12:52:05.003Z,72.58